首页
METAR-TAF:

METAR-TAF

机场 :

Army Air Corps Middle Wallop

Middle Wallop, 英格兰

纬度: 51-09N, 经度: 001-34W, 海拔: 91米

当前天气观测

该预报发布于37分钟前的18:24 UTC
风速11节,风向西南
温度 6°C
湿度 87%
气压 1015 hPa
能见度10公里或以上
少量云层高于2400英尺
多云层高于16000英尺

METAR: EGVP 181824Z 23011KT 9999 FEW024 BKN160 06/04 Q1015 TEMPO SHRA SCT024 RMK BLU TEMPO WHT

时间: 19:01 (19:01 UTC)

预报

该预报发布于2小时和36分钟前的16:25 UTC
预报有效从18日的 18点(UTC)到 18日的 23点(UTC)
风速18节,风向西转西南,有时为28节阵风
能见度10公里或以上
少量云层高于2700英尺
成为
从 18日的 18点(UTC)到 18日的 20点(UTC)
风速10节,风向西
短暂存在
从 18日的 18点(UTC)到 18日的 20点(UTC)
能見度: 7000
散云层高于1500英尺
阵雨
几率 30% :
短暂存在
从 18日的 20点(UTC)到 18日的 21点(UTC)
风速15节,风向西,有时为25节阵风
能見度: 7000
散云层高于1500英尺
阵雨

TAF: EGVP 181625Z 1818/1823 24018G28KT 9999 FEW027 BECMG 1818/1820 28010KT TEMPO 1818/1820 7000 SHRA SCT015 PROB30 TEMPO 1820/1821 28015G25KT 7000 SHRA SCT015

超过4000个机场的气象观测和天气预报(METAR&TAF报告)。

可查询的气象台以黄色和红色小点在地图上表示。

将鼠标移到小点上方,可查看气象台名称。

然后点击查看天气观测和预报。

如需切换地图:点击带黑十字的绿色按钮放大地图;点击带横线的绿色按钮缩小地图;或者点击绿色箭头查看邻近地区的地图。


METAR-TAF: